NSZ611 ENBR-EKCH
Flight info
| Callsign | NSZ611 |
|---|---|
| Flight time | 1h 11m |
| Altitude | 35000 |
| Route | TUXIL DCT ZOL DCT TESPI |
| Aircraft | B738/M-SDE2E3FGHIRWXY/LB1 |
Departure
| Time | 2026-05-06 12:12 |
|---|---|
| Airport | Bergen Airport, Flesland (ENBR) |
Arrival
| Time | 2026-05-06 13:23 |
|---|---|
| Airport | Copenhagen Kastrup Airport (EKCH) |
| Time | Latitude | Longitude | Altitude | Speed | Heading |
|---|---|---|---|---|---|
| 2026-05-06 11:29 | 60.28812 | 5.22689 | 174 ft | 0 kts | 10° |
| 2026-05-06 12:01 | 60.28805 | 5.22687 | 174 ft | 2 kts | 8° |
| 2026-05-06 12:01 | 60.28787 | 5.22686 | 174 ft | 3 kts | 352° |
| 2026-05-06 12:01 | 60.28768 | 5.22697 | 174 ft | 3 kts | 333° |
| 2026-05-06 12:01 | 60.28752 | 5.22722 | 174 ft | 3 kts | 313° |
| 2026-05-06 12:02 | 60.28741 | 5.22756 | 174 ft | 3 kts | 290° |
| 2026-05-06 12:02 | 60.28739 | 5.22771 | 174 ft | 0 kts | 282° |
| 2026-05-06 12:03 | 60.28739 | 5.22770 | 174 ft | 0 kts | 282° |
| 2026-05-06 12:06 | 60.28739 | 5.22766 | 174 ft | 3 kts | 282° |
| 2026-05-06 12:06 | 60.28742 | 5.22662 | 174 ft | 11 kts | 268° |
| 2026-05-06 12:06 | 60.28721 | 5.22505 | 174 ft | 12 kts | 242° |
| 2026-05-06 12:06 | 60.28725 | 5.22353 | 174 ft | 12 kts | 329° |
| 2026-05-06 12:07 | 60.28790 | 5.22321 | 174 ft | 0 kts | 346° |
| 2026-05-06 12:07 | 60.28796 | 5.22318 | 174 ft | 3 kts | 346° |
| 2026-05-06 12:07 | 60.28799 | 5.22317 | 174 ft | 0 kts | 346° |
| 2026-05-06 12:08 | 60.28819 | 5.22309 | 174 ft | 13 kts | 350° |
| 2026-05-06 12:08 | 60.28968 | 5.22259 | 174 ft | 26 kts | 351° |
| 2026-05-06 12:09 | 60.29167 | 5.22196 | 174 ft | 32 kts | 349° |
| 2026-05-06 12:09 | 60.29398 | 5.22122 | 174 ft | 34 kts | 349° |
| 2026-05-06 12:09 | 60.29633 | 5.22038 | 174 ft | 34 kts | 350° |
| 2026-05-06 12:09 | 60.29864 | 5.21962 | 174 ft | 33 kts | 351° |
| 2026-05-06 12:10 | 60.30025 | 5.21893 | 174 ft | 17 kts | 323° |
| 2026-05-06 12:10 | 60.30045 | 5.21802 | 174 ft | 0 kts | 268° |
| 2026-05-06 12:10 | 60.30045 | 5.21801 | 174 ft | 0 kts | 268° |
| 2026-05-06 12:11 | 60.30039 | 5.21677 | 174 ft | 21 kts | 254° |
| 2026-05-06 12:11 | 60.29920 | 5.21605 | 174 ft | 21 kts | 163° |
| 2026-05-06 12:11 | 60.29742 | 5.21675 | 174 ft | 35 kts | 172° |
| 2026-05-06 12:12 | 60.29278 | 5.21827 | 174 ft | 102 kts | 172° |
| 2026-05-06 12:12 | 60.28370 | 5.22131 | 181 ft | 159 kts | 174° |
| 2026-05-06 12:12 | 60.27266 | 5.22486 | 816 ft | 157 kts | 174° |
| 2026-05-06 12:12 | 60.26158 | 5.22847 | 1491 ft | 168 kts | 173° |
| 2026-05-06 12:13 | 60.24956 | 5.23247 | 2071 ft | 183 kts | 172° |
| 2026-05-06 12:13 | 60.23645 | 5.23681 | 2672 ft | 199 kts | 172° |
| 2026-05-06 12:13 | 60.22223 | 5.24158 | 3316 ft | 215 kts | 172° |
| 2026-05-06 12:13 | 60.20692 | 5.24670 | 3984 ft | 231 kts | 172° |
| 2026-05-06 12:14 | 60.19063 | 5.25212 | 4614 ft | 249 kts | 171° |
| 2026-05-06 12:14 | 60.17319 | 5.25791 | 5413 ft | 258 kts | 172° |
| 2026-05-06 12:14 | 60.15535 | 5.26397 | 6335 ft | 262 kts | 172° |
| 2026-05-06 12:14 | 60.13712 | 5.27013 | 7193 ft | 268 kts | 172° |
| 2026-05-06 12:15 | 60.11855 | 5.27640 | 8051 ft | 273 kts | 172° |
| 2026-05-06 12:15 | 60.09968 | 5.28277 | 8919 ft | 277 kts | 172° |
| 2026-05-06 12:15 | 60.08050 | 5.28868 | 9760 ft | 281 kts | 174° |
| 2026-05-06 12:15 | 60.06055 | 5.29397 | 10329 ft | 297 kts | 175° |
| 2026-05-06 12:16 | 60.03943 | 5.29941 | 10775 ft | 314 kts | 175° |
| 2026-05-06 12:16 | 60.01719 | 5.30522 | 11211 ft | 331 kts | 175° |
| 2026-05-06 12:16 | 59.99376 | 5.31146 | 11641 ft | 348 kts | 175° |
| 2026-05-06 12:16 | 59.96913 | 5.31807 | 12050 ft | 364 kts | 176° |
| 2026-05-06 12:17 | 59.94373 | 5.32490 | 12722 ft | 371 kts | 176° |
| 2026-05-06 12:17 | 59.91798 | 5.33179 | 13514 ft | 375 kts | 177° |
| 2026-05-06 12:17 | 59.89200 | 5.33871 | 14300 ft | 378 kts | 178° |
| 2026-05-06 12:17 | 59.86587 | 5.34564 | 15104 ft | 381 kts | 178° |
| 2026-05-06 12:18 | 59.83981 | 5.35260 | 16337 ft | 382 kts | 179° |
| 2026-05-06 12:18 | 59.81315 | 5.36259 | 17936 ft | 398 kts | 168° |
| 2026-05-06 12:18 | 59.78756 | 5.38598 | 19498 ft | 416 kts | 151° |
| 2026-05-06 12:18 | 59.76476 | 5.42140 | 21146 ft | 425 kts | 150° |
| 2026-05-06 12:19 | 59.74080 | 5.45747 | 21953 ft | 439 kts | 150° |
| 2026-05-06 12:19 | 59.71605 | 5.49464 | 22720 ft | 451 kts | 150° |
| 2026-05-06 12:19 | 59.69083 | 5.53261 | 23358 ft | 460 kts | 150° |
| 2026-05-06 12:19 | 59.66539 | 5.57095 | 23994 ft | 458 kts | 151° |
| 2026-05-06 12:20 | 59.63971 | 5.60950 | 24832 ft | 464 kts | 151° |
| 2026-05-06 12:20 | 59.61376 | 5.64827 | 25834 ft | 470 kts | 151° |
| 2026-05-06 12:20 | 59.58756 | 5.68743 | 26610 ft | 474 kts | 150° |
| 2026-05-06 12:20 | 59.57012 | 5.71347 | 26984 ft | 475 kts | 151° |
| 2026-05-06 12:21 | 59.54385 | 5.75253 | 27592 ft | 475 kts | 152° |
| 2026-05-06 12:21 | 59.50895 | 5.80449 | 28529 ft | 476 kts | 152° |
| 2026-05-06 12:21 | 59.48243 | 5.84390 | 28885 ft | 477 kts | 153° |
| 2026-05-06 12:21 | 59.45624 | 5.88284 | 29546 ft | 469 kts | 153° |
| 2026-05-06 12:22 | 59.43870 | 5.90873 | 29880 ft | 465 kts | 153° |
| 2026-05-06 12:22 | 59.41291 | 5.94670 | 30334 ft | 461 kts | 153° |
| 2026-05-06 12:22 | 59.38728 | 5.98444 | 30705 ft | 460 kts | 153° |
| 2026-05-06 12:22 | 59.36202 | 6.02155 | 31026 ft | 459 kts | 153° |
| 2026-05-06 12:23 | 59.33648 | 6.05901 | 31358 ft | 458 kts | 152° |
| 2026-05-06 12:23 | 59.31100 | 6.09631 | 31676 ft | 457 kts | 152° |
| 2026-05-06 12:23 | 59.28545 | 6.13363 | 31962 ft | 457 kts | 152° |
| 2026-05-06 12:23 | 59.25998 | 6.17077 | 32242 ft | 457 kts | 152° |
| 2026-05-06 12:24 | 59.23443 | 6.20795 | 32514 ft | 458 kts | 152° |
| 2026-05-06 12:24 | 59.20885 | 6.24511 | 32791 ft | 457 kts | 152° |
| 2026-05-06 12:24 | 59.18327 | 6.28220 | 33054 ft | 458 kts | 151° |
| 2026-05-06 12:24 | 59.15772 | 6.31918 | 33321 ft | 457 kts | 151° |
| 2026-05-06 12:25 | 59.13217 | 6.35609 | 33589 ft | 457 kts | 151° |
| 2026-05-06 12:25 | 59.10662 | 6.39293 | 33849 ft | 457 kts | 151° |
| 2026-05-06 12:25 | 59.08103 | 6.42973 | 34093 ft | 457 kts | 151° |
| 2026-05-06 12:25 | 59.05547 | 6.46645 | 34358 ft | 456 kts | 151° |
| 2026-05-06 12:26 | 59.02992 | 6.50307 | 34603 ft | 456 kts | 151° |
| 2026-05-06 12:26 | 59.00442 | 6.53956 | 34843 ft | 456 kts | 151° |
| 2026-05-06 12:26 | 58.95304 | 6.61284 | 34945 ft | 459 kts | 151° |
| 2026-05-06 12:27 | 58.90204 | 6.68535 | 34946 ft | 456 kts | 151° |
| 2026-05-06 12:27 | 58.85103 | 6.75758 | 34942 ft | 453 kts | 151° |
| 2026-05-06 12:28 | 58.80030 | 6.82914 | 34935 ft | 451 kts | 151° |
| 2026-05-06 12:28 | 58.74968 | 6.90030 | 34931 ft | 449 kts | 151° |
| 2026-05-06 12:29 | 58.69911 | 6.97111 | 34926 ft | 449 kts | 151° |
| 2026-05-06 12:29 | 58.64861 | 7.04156 | 34921 ft | 448 kts | 151° |
| 2026-05-06 12:30 | 58.59845 | 7.11130 | 34917 ft | 447 kts | 152° |
| 2026-05-06 12:30 | 58.54803 | 7.18114 | 34914 ft | 447 kts | 152° |
| 2026-05-06 12:31 | 58.49768 | 7.25063 | 34911 ft | 446 kts | 152° |
| 2026-05-06 12:31 | 58.44738 | 7.31980 | 34908 ft | 445 kts | 152° |
| 2026-05-06 12:32 | 58.39707 | 7.38874 | 34906 ft | 444 kts | 152° |
| 2026-05-06 12:32 | 58.34683 | 7.45733 | 34904 ft | 443 kts | 152° |
| 2026-05-06 12:33 | 58.29665 | 7.52560 | 34903 ft | 443 kts | 152° |
| 2026-05-06 12:33 | 58.24896 | 7.59025 | 34902 ft | 442 kts | 152° |
| 2026-05-06 12:34 | 58.19886 | 7.65795 | 34900 ft | 442 kts | 152° |
| 2026-05-06 12:34 | 58.14880 | 7.72536 | 34900 ft | 441 kts | 152° |
| 2026-05-06 12:35 | 58.09875 | 7.79250 | 34900 ft | 440 kts | 152° |
| 2026-05-06 12:35 | 58.04879 | 7.85929 | 34899 ft | 439 kts | 152° |
| 2026-05-06 12:36 | 57.99915 | 7.92542 | 34899 ft | 439 kts | 153° |
| 2026-05-06 12:36 | 57.94920 | 7.99173 | 34899 ft | 439 kts | 153° |
| 2026-05-06 12:37 | 57.89925 | 8.05781 | 34899 ft | 439 kts | 153° |
| 2026-05-06 12:37 | 57.84925 | 8.12375 | 34897 ft | 439 kts | 153° |
| 2026-05-06 12:38 | 57.79921 | 8.18950 | 34895 ft | 439 kts | 153° |
| 2026-05-06 12:38 | 57.74912 | 8.25508 | 34894 ft | 439 kts | 153° |
| 2026-05-06 12:39 | 57.69905 | 8.32042 | 34892 ft | 438 kts | 153° |
| 2026-05-06 12:39 | 57.64900 | 8.38549 | 34890 ft | 438 kts | 153° |
| 2026-05-06 12:40 | 57.59900 | 8.45030 | 34888 ft | 437 kts | 153° |
| 2026-05-06 12:40 | 57.54905 | 8.51480 | 34886 ft | 437 kts | 153° |
| 2026-05-06 12:41 | 57.49907 | 8.57914 | 34883 ft | 436 kts | 153° |
| 2026-05-06 12:41 | 57.44917 | 8.64315 | 34880 ft | 435 kts | 153° |
| 2026-05-06 12:42 | 57.39960 | 8.70652 | 34880 ft | 435 kts | 153° |
| 2026-05-06 12:42 | 57.34039 | 8.78194 | 34879 ft | 434 kts | 153° |
| 2026-05-06 12:43 | 57.24070 | 8.90825 | 34876 ft | 434 kts | 153° |
| 2026-05-06 12:43 | 57.14092 | 9.03384 | 34874 ft | 434 kts | 153° |
| 2026-05-06 12:44 | 57.04119 | 9.15852 | 34869 ft | 433 kts | 153° |
| 2026-05-06 12:44 | 56.95747 | 9.26255 | 34869 ft | 432 kts | 153° |
| 2026-05-06 12:45 | 56.90730 | 9.32457 | 34335 ft | 439 kts | 153° |
| 2026-05-06 12:45 | 56.85732 | 9.38627 | 33375 ft | 428 kts | 153° |
| 2026-05-06 12:45 | 56.75948 | 9.50633 | 31488 ft | 427 kts | 153° |
| 2026-05-06 12:46 | 56.71012 | 9.56662 | 30538 ft | 427 kts | 153° |
| 2026-05-06 12:46 | 56.66064 | 9.62685 | 29587 ft | 428 kts | 153° |
| 2026-05-06 12:46 | 56.61108 | 9.68699 | 28636 ft | 429 kts | 152° |
| 2026-05-06 12:46 | 56.56132 | 9.74717 | 27684 ft | 431 kts | 152° |
| 2026-05-06 12:47 | 56.51114 | 9.80767 | 26734 ft | 434 kts | 152° |
| 2026-05-06 12:47 | 56.46061 | 9.86840 | 25782 ft | 437 kts | 152° |
| 2026-05-06 12:47 | 56.41046 | 9.92850 | 24826 ft | 424 kts | 152° |
| 2026-05-06 12:47 | 56.36209 | 9.98626 | 23870 ft | 410 kts | 152° |
| 2026-05-06 12:48 | 56.31465 | 10.04271 | 22920 ft | 408 kts | 152° |
| 2026-05-06 12:48 | 56.26757 | 10.09858 | 21964 ft | 400 kts | 152° |
| 2026-05-06 12:48 | 56.23346 | 10.13896 | 21265 ft | 399 kts | 152° |
| 2026-05-06 12:48 | 56.21034 | 10.16630 | 20787 ft | 395 kts | 152° |
| 2026-05-06 12:49 | 56.18742 | 10.19333 | 20311 ft | 393 kts | 151° |
| 2026-05-06 12:49 | 56.16494 | 10.21983 | 19841 ft | 391 kts | 151° |
| 2026-05-06 12:49 | 56.14227 | 10.24650 | 19364 ft | 388 kts | 151° |
| 2026-05-06 12:49 | 56.11979 | 10.27291 | 18888 ft | 385 kts | 151° |
| 2026-05-06 12:50 | 56.09738 | 10.29920 | 18411 ft | 384 kts | 151° |
| 2026-05-06 12:50 | 56.07511 | 10.32529 | 17935 ft | 382 kts | 151° |
| 2026-05-06 12:50 | 56.05295 | 10.35122 | 17460 ft | 379 kts | 150° |
| 2026-05-06 12:50 | 56.03089 | 10.37698 | 16984 ft | 378 kts | 150° |
| 2026-05-06 12:51 | 56.00891 | 10.40263 | 16507 ft | 377 kts | 150° |
| 2026-05-06 12:51 | 55.98698 | 10.42818 | 16026 ft | 375 kts | 150° |
| 2026-05-06 12:51 | 55.96521 | 10.45351 | 15554 ft | 371 kts | 150° |
| 2026-05-06 12:51 | 55.94370 | 10.47851 | 15080 ft | 367 kts | 149° |
| 2026-05-06 12:52 | 55.92317 | 10.50460 | 14990 ft | 365 kts | 141° |
| 2026-05-06 12:52 | 55.90596 | 10.53874 | 15000 ft | 372 kts | 126° |
| 2026-05-06 12:52 | 55.89438 | 10.58007 | 15001 ft | 376 kts | 109° |
| 2026-05-06 12:52 | 55.88767 | 10.62516 | 14974 ft | 377 kts | 104° |
| 2026-05-06 12:53 | 55.88196 | 10.67006 | 14964 ft | 377 kts | 104° |
| 2026-05-06 12:53 | 55.87627 | 10.71562 | 14959 ft | 377 kts | 104° |
| 2026-05-06 12:53 | 55.87058 | 10.76124 | 14956 ft | 377 kts | 104° |
| 2026-05-06 12:53 | 55.86491 | 10.80682 | 14955 ft | 377 kts | 104° |
| 2026-05-06 12:54 | 55.85926 | 10.85246 | 14953 ft | 377 kts | 103° |
| 2026-05-06 12:54 | 55.85364 | 10.89801 | 14952 ft | 377 kts | 103° |
| 2026-05-06 12:54 | 55.84815 | 10.94367 | 14948 ft | 377 kts | 101° |
| 2026-05-06 12:54 | 55.84775 | 10.98985 | 14944 ft | 368 kts | 81° |
| 2026-05-06 12:55 | 55.85518 | 11.03208 | 14945 ft | 348 kts | 63° |
| 2026-05-06 12:55 | 55.86846 | 11.06642 | 14945 ft | 328 kts | 45° |
| 2026-05-06 12:55 | 55.88545 | 11.09133 | 14944 ft | 307 kts | 29° |
| 2026-05-06 12:55 | 55.90418 | 11.10651 | 14943 ft | 286 kts | 14° |
| 2026-05-06 12:56 | 55.92296 | 11.11268 | 14944 ft | 272 kts | 360° |
| 2026-05-06 12:56 | 55.94140 | 11.11103 | 14946 ft | 260 kts | 346° |
| 2026-05-06 12:56 | 55.95865 | 11.10231 | 14952 ft | 260 kts | 334° |
| 2026-05-06 12:56 | 55.97440 | 11.08701 | 14953 ft | 255 kts | 321° |
| 2026-05-06 12:57 | 55.98765 | 11.06634 | 14955 ft | 251 kts | 309° |
| 2026-05-06 12:57 | 55.99797 | 11.04142 | 14956 ft | 248 kts | 297° |
| 2026-05-06 12:57 | 56.00491 | 11.01345 | 14960 ft | 246 kts | 285° |
| 2026-05-06 12:57 | 56.00935 | 10.98410 | 14959 ft | 244 kts | 282° |
| 2026-05-06 12:58 | 56.01341 | 10.95476 | 14958 ft | 243 kts | 282° |
| 2026-05-06 12:58 | 56.01747 | 10.92545 | 14958 ft | 243 kts | 282° |
| 2026-05-06 12:58 | 56.02160 | 10.89617 | 14959 ft | 243 kts | 282° |
| 2026-05-06 12:58 | 56.02583 | 10.86693 | 14960 ft | 243 kts | 282° |
| 2026-05-06 12:59 | 56.03010 | 10.83770 | 14961 ft | 243 kts | 282° |
| 2026-05-06 12:59 | 56.03437 | 10.80848 | 14962 ft | 243 kts | 282° |
| 2026-05-06 12:59 | 56.03858 | 10.77966 | 14964 ft | 243 kts | 282° |
| 2026-05-06 12:59 | 56.04284 | 10.75044 | 14955 ft | 243 kts | 282° |
| 2026-05-06 13:00 | 56.04668 | 10.72109 | 14949 ft | 242 kts | 277° |
| 2026-05-06 13:00 | 56.04781 | 10.69125 | 14948 ft | 241 kts | 266° |
| 2026-05-06 13:00 | 56.04557 | 10.66166 | 14948 ft | 240 kts | 256° |
| 2026-05-06 13:00 | 56.03994 | 10.63358 | 14948 ft | 240 kts | 244° |
| 2026-05-06 13:01 | 56.03113 | 10.60811 | 14948 ft | 241 kts | 233° |
| 2026-05-06 13:01 | 56.01954 | 10.58639 | 14948 ft | 243 kts | 222° |
| 2026-05-06 13:01 | 56.00551 | 10.56924 | 14949 ft | 246 kts | 211° |
| 2026-05-06 13:01 | 55.98960 | 10.55759 | 14948 ft | 249 kts | 199° |
| 2026-05-06 13:02 | 55.97246 | 10.55217 | 14949 ft | 252 kts | 187° |
| 2026-05-06 13:02 | 55.95480 | 10.55348 | 14949 ft | 256 kts | 174° |
| 2026-05-06 13:02 | 55.93747 | 10.56176 | 14949 ft | 260 kts | 162° |
| 2026-05-06 13:02 | 55.92143 | 10.57689 | 14946 ft | 264 kts | 147° |
| 2026-05-06 13:03 | 55.90896 | 10.60191 | 14627 ft | 279 kts | 121° |
| 2026-05-06 13:03 | 55.90091 | 10.63386 | 14204 ft | 286 kts | 113° |
| 2026-05-06 13:03 | 55.89354 | 10.66736 | 13782 ft | 294 kts | 113° |
| 2026-05-06 13:03 | 55.88580 | 10.70124 | 13356 ft | 295 kts | 114° |
| 2026-05-06 13:04 | 55.87780 | 10.73507 | 12931 ft | 296 kts | 114° |
| 2026-05-06 13:04 | 55.86971 | 10.76877 | 12505 ft | 295 kts | 114° |
| 2026-05-06 13:04 | 55.86173 | 10.80186 | 12084 ft | 294 kts | 114° |
| 2026-05-06 13:04 | 55.85363 | 10.83522 | 11675 ft | 292 kts | 114° |
| 2026-05-06 13:05 | 55.84559 | 10.86818 | 11298 ft | 289 kts | 114° |
| 2026-05-06 13:05 | 55.83759 | 10.90076 | 10922 ft | 286 kts | 114° |
| 2026-05-06 13:05 | 55.82961 | 10.93296 | 10546 ft | 283 kts | 114° |
| 2026-05-06 13:05 | 55.82170 | 10.96479 | 10170 ft | 280 kts | 114° |
| 2026-05-06 13:06 | 55.81387 | 10.99628 | 9794 ft | 277 kts | 114° |
| 2026-05-06 13:06 | 55.80609 | 11.02749 | 9417 ft | 275 kts | 113° |
| 2026-05-06 13:06 | 55.79837 | 11.05846 | 9040 ft | 272 kts | 113° |
| 2026-05-06 13:06 | 55.79071 | 11.08913 | 8685 ft | 269 kts | 113° |
| 2026-05-06 13:07 | 55.78315 | 11.11934 | 8384 ft | 265 kts | 112° |
| 2026-05-06 13:07 | 55.77581 | 11.14867 | 8132 ft | 262 kts | 113° |
| 2026-05-06 13:07 | 55.77084 | 11.16850 | 7963 ft | 260 kts | 113° |
| 2026-05-06 13:07 | 55.76103 | 11.20758 | 7631 ft | 264 kts | 113° |
| 2026-05-06 13:08 | 55.75350 | 11.23750 | 7382 ft | 267 kts | 113° |
| 2026-05-06 13:08 | 55.74846 | 11.25753 | 7215 ft | 267 kts | 113° |
| 2026-05-06 13:08 | 55.74090 | 11.28752 | 6963 ft | 264 kts | 113° |
| 2026-05-06 13:08 | 55.73340 | 11.31727 | 6712 ft | 263 kts | 113° |
| 2026-05-06 13:09 | 55.72595 | 11.34672 | 6460 ft | 261 kts | 113° |
| 2026-05-06 13:09 | 55.71854 | 11.37601 | 6210 ft | 259 kts | 113° |
| 2026-05-06 13:09 | 55.71117 | 11.40507 | 5957 ft | 257 kts | 113° |
| 2026-05-06 13:09 | 55.70384 | 11.43399 | 5709 ft | 256 kts | 113° |
| 2026-05-06 13:10 | 55.69661 | 11.46246 | 5456 ft | 250 kts | 113° |
| 2026-05-06 13:10 | 55.68953 | 11.49028 | 5204 ft | 246 kts | 113° |
| 2026-05-06 13:10 | 55.68251 | 11.51786 | 4948 ft | 245 kts | 113° |
| 2026-05-06 13:10 | 55.67551 | 11.54530 | 4697 ft | 244 kts | 113° |
| 2026-05-06 13:11 | 55.66853 | 11.57265 | 4450 ft | 243 kts | 113° |
| 2026-05-06 13:11 | 55.66197 | 11.60021 | 4179 ft | 243 kts | 109° |
| 2026-05-06 13:11 | 55.65660 | 11.62811 | 3851 ft | 242 kts | 107° |
| 2026-05-06 13:11 | 55.65141 | 11.65634 | 3525 ft | 240 kts | 107° |
| 2026-05-06 13:12 | 55.64626 | 11.68441 | 3202 ft | 239 kts | 107° |
| 2026-05-06 13:12 | 55.64111 | 11.71238 | 3025 ft | 238 kts | 107° |
| 2026-05-06 13:12 | 55.63594 | 11.74047 | 3015 ft | 241 kts | 107° |
| 2026-05-06 13:12 | 55.63074 | 11.76872 | 3009 ft | 241 kts | 107° |
| 2026-05-06 13:13 | 55.62556 | 11.79692 | 3001 ft | 241 kts | 107° |
| 2026-05-06 13:13 | 55.62038 | 11.82506 | 3000 ft | 240 kts | 107° |
| 2026-05-06 13:13 | 55.61521 | 11.85320 | 2999 ft | 240 kts | 107° |
| 2026-05-06 13:13 | 55.61003 | 11.88133 | 2999 ft | 240 kts | 107° |
| 2026-05-06 13:14 | 55.60486 | 11.90945 | 3001 ft | 240 kts | 107° |
| 2026-05-06 13:14 | 55.59968 | 11.93757 | 3002 ft | 240 kts | 107° |
| 2026-05-06 13:14 | 55.59452 | 11.96574 | 3002 ft | 240 kts | 106° |
| 2026-05-06 13:14 | 55.59102 | 11.99411 | 3004 ft | 229 kts | 100° |
| 2026-05-06 13:15 | 55.58784 | 12.02058 | 3000 ft | 211 kts | 102° |
| 2026-05-06 13:15 | 55.58408 | 12.04396 | 2991 ft | 194 kts | 108° |
| 2026-05-06 13:15 | 55.57955 | 12.06636 | 2998 ft | 187 kts | 109° |
| 2026-05-06 13:15 | 55.57508 | 12.08767 | 3004 ft | 183 kts | 109° |
| 2026-05-06 13:16 | 55.57053 | 12.10921 | 2898 ft | 191 kts | 109° |
| 2026-05-06 13:16 | 55.56597 | 12.13084 | 2720 ft | 187 kts | 109° |
| 2026-05-06 13:16 | 55.56142 | 12.15242 | 2482 ft | 185 kts | 109° |
| 2026-05-06 13:16 | 55.55699 | 12.17357 | 2242 ft | 183 kts | 109° |
| 2026-05-06 13:17 | 55.55262 | 12.19454 | 2028 ft | 180 kts | 109° |
| 2026-05-06 13:17 | 55.54830 | 12.21539 | 2013 ft | 183 kts | 109° |
| 2026-05-06 13:17 | 55.54393 | 12.23650 | 2004 ft | 182 kts | 109° |
| 2026-05-06 13:17 | 55.53957 | 12.25748 | 2002 ft | 181 kts | 109° |
| 2026-05-06 13:18 | 55.53523 | 12.27831 | 2000 ft | 180 kts | 109° |
| 2026-05-06 13:18 | 55.53088 | 12.29910 | 2000 ft | 180 kts | 109° |
| 2026-05-06 13:18 | 55.52659 | 12.31960 | 1999 ft | 180 kts | 109° |
| 2026-05-06 13:18 | 55.52225 | 12.34037 | 1999 ft | 180 kts | 109° |
| 2026-05-06 13:19 | 55.51790 | 12.36110 | 1999 ft | 180 kts | 109° |
| 2026-05-06 13:19 | 55.51357 | 12.38176 | 2001 ft | 179 kts | 109° |
| 2026-05-06 13:19 | 55.50931 | 12.40207 | 1999 ft | 173 kts | 109° |
| 2026-05-06 13:19 | 55.50522 | 12.42164 | 1993 ft | 166 kts | 108° |
| 2026-05-06 13:20 | 55.50355 | 12.44212 | 1994 ft | 170 kts | 89° |
| 2026-05-06 13:20 | 55.50568 | 12.46233 | 1978 ft | 169 kts | 68° |
| 2026-05-06 13:20 | 55.51231 | 12.47933 | 1990 ft | 170 kts | 50° |
| 2026-05-06 13:20 | 55.52079 | 12.49404 | 1888 ft | 171 kts | 45° |
| 2026-05-06 13:21 | 55.52953 | 12.50729 | 1699 ft | 158 kts | 43° |
| 2026-05-06 13:21 | 55.53773 | 12.51952 | 1493 ft | 151 kts | 44° |
| 2026-05-06 13:21 | 55.54556 | 12.53148 | 1297 ft | 147 kts | 45° |
| 2026-05-06 13:21 | 55.55338 | 12.54362 | 1104 ft | 151 kts | 45° |
| 2026-05-06 13:22 | 55.56122 | 12.55574 | 904 ft | 149 kts | 45° |
| 2026-05-06 13:22 | 55.56892 | 12.56759 | 711 ft | 148 kts | 45° |
| 2026-05-06 13:22 | 55.57666 | 12.57954 | 513 ft | 147 kts | 45° |
| 2026-05-06 13:22 | 55.58439 | 12.59134 | 381 ft | 147 kts | 44° |
| 2026-05-06 13:23 | 55.59224 | 12.60288 | 282 ft | 148 kts | 46° |
| 2026-05-06 13:23 | 55.59971 | 12.61529 | 84 ft | 142 kts | 43° |
| 2026-05-06 13:23 | 55.60623 | 12.62531 | 26 ft | 94 kts | 41° |
| 2026-05-06 13:23 | 55.60948 | 12.63030 | 26 ft | 42 kts | 44° |
| 2026-05-06 13:24 | 55.61158 | 12.63308 | 26 ft | 34 kts | 8° |
| 2026-05-06 13:24 | 55.61324 | 12.63312 | 26 ft | 22 kts | 359° |
| 2026-05-06 13:24 | 55.61470 | 12.63447 | 26 ft | 27 kts | 42° |
| 2026-05-06 13:24 | 55.61621 | 12.63682 | 26 ft | 31 kts | 40° |
| 2026-05-06 13:25 | 55.61783 | 12.63940 | 26 ft | 26 kts | 41° |
| 2026-05-06 13:25 | 55.61922 | 12.64110 | 26 ft | 22 kts | 25° |
| 2026-05-06 13:25 | 55.62054 | 12.64218 | 26 ft | 19 kts | 25° |
| 2026-05-06 13:25 | 55.62166 | 12.64314 | 26 ft | 17 kts | 26° |
| 2026-05-06 13:26 | 55.62266 | 12.64388 | 26 ft | 14 kts | 15° |
| 2026-05-06 13:26 | 55.62356 | 12.64432 | 26 ft | 13 kts | 15° |
| 2026-05-06 13:26 | 55.62435 | 12.64469 | 26 ft | 11 kts | 12° |
| 2026-05-06 13:26 | 55.62511 | 12.64429 | 26 ft | 17 kts | 309° |
| 2026-05-06 13:27 | 55.62594 | 12.64217 | 26 ft | 22 kts | 304° |
| 2026-05-06 13:27 | 55.62661 | 12.64121 | 26 ft | 11 kts | 18° |
| 2026-05-06 13:27 | 55.62700 | 12.64161 | 26 ft | 5 kts | 33° |
| 2026-05-06 13:27 | 55.62702 | 12.64163 | 26 ft | 0 kts | 32° |